sensor_id;sensor_type;location;lat;lon;timestamp;pressure;altitude;pressure_sealevel;temperature;humidity
67842;BME280;54642;59.126;37.876;2023-06-04T00:00:53;99838.00;;;7.41;59.23
67842;BME280;54642;59.126;37.876;2023-06-04T00:03:19;99840.59;;;7.42;59.47
67842;BME280;54642;59.126;37.876;2023-06-04T00:05:45;99850.91;;;7.45;59.54
67842;BME280;54642;59.126;37.876;2023-06-04T00:08:11;99854.31;;;7.35;59.67
67842;BME280;54642;59.126;37.876;2023-06-04T00:10:37;99836.19;;;7.21;60.00
67842;BME280;54642;59.126;37.876;2023-06-04T00:13:05;99832.69;;;7.12;60.12
67842;BME280;54642;59.126;37.876;2023-06-04T00:15:31;99857.69;;;7.30;60.42
67842;BME280;54642;59.126;37.876;2023-06-04T00:17:57;99845.69;;;7.30;60.54
67842;BME280;54642;59.126;37.876;2023-06-04T00:20:23;99832.78;;;7.27;60.48
67842;BME280;54642;59.126;37.876;2023-06-04T00:22:49;99854.31;;;7.34;60.74
67842;BME280;54642;59.126;37.876;2023-06-04T00:25:15;99756.91;;;6.70;60.88
67842;BME280;54642;59.126;37.876;2023-06-04T00:27:41;99877.50;;;7.34;61.14
67842;BME280;54642;59.126;37.876;2023-06-04T00:30:07;99870.56;;;7.30;61.04
67842;BME280;54642;59.126;37.876;2023-06-04T00:32:34;99870.59;;;7.27;61.12
67842;BME280;54642;59.126;37.876;2023-06-04T00:35:00;99878.34;;;7.28;61.37
67842;BME280;54642;59.126;37.876;2023-06-04T00:37:27;99882.63;;;7.31;61.58
67842;BME280;54642;59.126;37.876;2023-06-04T00:39:54;99824.88;;;6.96;61.52
67842;BME280;54642;59.126;37.876;2023-06-04T00:42:20;99883.50;;;7.33;61.78
67842;BME280;54642;59.126;37.876;2023-06-04T00:44:48;99872.28;;;7.24;61.66
67842;BME280;54642;59.126;37.876;2023-06-04T00:47:15;99881.75;;;7.29;61.69
67842;BME280;54642;59.126;37.876;2023-06-04T00:49:41;99815.38;;;6.87;61.95
67842;BME280;54642;59.126;37.876;2023-06-04T00:52:08;99863.63;;;7.13;62.23
67842;BME280;54642;59.126;37.876;2023-06-04T00:54:37;99880.84;;;7.20;61.93
67842;BME280;54642;59.126;37.876;2023-06-04T00:57:06;99901.50;;;7.25;62.44
67842;BME280;54642;59.126;37.876;2023-06-04T00:59:36;99903.19;;;7.21;62.43
67842;BME280;54642;59.126;37.876;2023-06-04T01:02:09;99892.03;;;7.22;62.64
67842;BME280;54642;59.126;37.876;2023-06-04T01:07:07;99879.94;;;7.15;62.70
67842;BME280;54642;59.126;37.876;2023-06-04T01:09:35;99895.44;;;7.17;62.72
67842;BME280;54642;59.126;37.876;2023-06-04T01:12:08;99873.03;;;7.10;63.09
67842;BME280;54642;59.126;37.876;2023-06-04T01:14:34;99895.44;;;7.17;62.88
67842;BME280;54642;59.126;37.876;2023-06-04T01:17:23;99893.72;;;7.19;63.07
67842;BME280;54642;59.126;37.876;2023-06-04T01:20:14;99905.78;;;7.21;63.28
67842;BME280;54642;59.126;37.876;2023-06-04T01:27:54;99894.59;;;7.19;63.22
67842;BME280;54642;59.126;37.876;2023-06-04T01:30:26;99879.06;;;7.09;63.52
67842;BME280;54642;59.126;37.876;2023-06-04T01:32:54;99910.91;;;7.20;63.38
67842;BME280;54642;59.126;37.876;2023-06-04T01:35:21;99877.31;;;7.03;63.52
67842;BME280;54642;59.126;37.876;2023-06-04T01:37:47;99909.19;;;7.16;63.55
67842;BME280;54642;59.126;37.876;2023-06-04T01:40:14;99800.59;;;6.57;63.47
67842;BME280;54642;59.126;37.876;2023-06-04T01:42:43;99911.78;;;7.23;63.87
67842;BME280;54642;59.126;37.876;2023-06-04T01:45:09;99907.50;;;7.19;63.71
67842;BME280;54642;59.126;37.876;2023-06-04T01:47:36;99843.72;;;6.87;63.62
67842;BME280;54642;59.126;37.876;2023-06-04T01:50:04;99914.41;;;7.28;63.86
67842;BME280;54642;59.126;37.876;2023-06-04T01:52:31;99916.94;;;7.20;63.77
67842;BME280;54642;59.126;37.876;2023-06-04T01:54:58;99910.94;;;7.23;63.92
67842;BME280;54642;59.126;37.876;2023-06-04T01:57:27;99912.66;;;7.21;64.17
67842;BME280;54642;59.126;37.876;2023-06-04T01:59:53;99908.34;;;7.21;63.96
67842;BME280;54642;59.126;37.876;2023-06-04T02:02:19;99863.53;;;6.96;64.27
67842;BME280;54642;59.126;37.876;2023-06-04T02:04:45;99916.09;;;7.23;64.18
67842;BME280;54642;59.126;37.876;2023-06-04T02:07:12;99929.84;;;7.25;64.08
67842;BME280;54642;59.126;37.876;2023-06-04T02:09:43;99928.16;;;7.29;64.31
67842;BME280;54642;59.126;37.876;2023-06-04T02:12:09;99947.09;;;7.34;64.42
67842;BME280;54642;59.126;37.876;2023-06-04T02:14:39;99941.06;;;7.35;64.49
67842;BME280;54642;59.126;37.876;2023-06-04T02:17:08;99926.41;;;7.28;64.60
67842;BME280;54642;59.126;37.876;2023-06-04T02:19:43;99946.25;;;7.36;64.49
67842;BME280;54642;59.126;37.876;2023-06-04T02:22:19;99877.28;;;7.00;64.87
67842;BME280;54642;59.126;37.876;2023-06-04T02:24:46;99940.22;;;7.36;64.67
67842;BME280;54642;59.126;37.876;2023-06-04T02:27:13;99929.00;;;7.28;64.90
67842;BME280;54642;59.126;37.876;2023-06-04T02:29:40;99923.84;;;7.24;64.80
67842;BME280;54642;59.126;37.876;2023-06-04T02:32:07;99960.06;;;7.46;64.89
67842;BME280;54642;59.126;37.876;2023-06-04T02:34:33;99930.81;;;7.41;64.83
67842;BME280;54642;59.126;37.876;2023-06-04T02:37:03;99950.63;;;7.54;64.76
67842;BME280;54642;59.126;37.876;2023-06-04T02:39:29;99963.56;;;7.56;64.63
67842;BME280;54642;59.126;37.876;2023-06-04T02:41:55;99926.56;;;7.48;64.66
67842;BME280;54642;59.126;37.876;2023-06-04T02:44:21;99844.66;;;7.00;64.79
67842;BME280;54642;59.126;37.876;2023-06-04T02:46:47;99962.78;;;7.68;64.70
67842;BME280;54642;59.126;37.876;2023-06-04T02:49:13;99942.09;;;7.63;64.55
67842;BME280;54642;59.126;37.876;2023-06-04T02:51:40;99918.03;;;7.61;64.64
67842;BME280;54642;59.126;37.876;2023-06-04T02:54:06;99958.50;;;7.79;64.53
67842;BME280;54642;59.126;37.876;2023-06-04T02:56:33;99925.78;;;7.69;64.47
67842;BME280;54642;59.126;37.876;2023-06-04T02:58:59;99961.16;;;7.97;64.39
67842;BME280;54642;59.126;37.876;2023-06-04T03:01:26;99941.38;;;7.93;64.31
67842;BME280;54642;59.126;37.876;2023-06-04T03:03:53;99968.13;;;8.15;64.27
67842;BME280;54642;59.126;37.876;2023-06-04T03:06:20;99950.94;;;8.17;63.93
67842;BME280;54642;59.126;37.876;2023-06-04T03:08:50;99961.28;;;8.24;63.92
67842;BME280;54642;59.126;37.876;2023-06-04T03:11:17;99981.06;;;8.23;63.75
67842;BME280;54642;59.126;37.876;2023-06-04T03:13:47;99969.88;;;8.26;63.66
67842;BME280;54642;59.126;37.876;2023-06-04T03:16:14;99959.53;;;8.18;63.76
67842;BME280;54642;59.126;37.876;2023-06-04T03:18:40;99858.72;;;7.62;63.71
67842;BME280;54642;59.126;37.876;2023-06-04T03:21:07;99970.75;;;8.23;63.70
67842;BME280;54642;59.126;37.876;2023-06-04T03:23:35;99963.84;;;8.25;63.75
67842;BME280;54642;59.126;37.876;2023-06-04T03:26:02;99975.06;;;8.35;63.39
67842;BME280;54642;59.126;37.876;2023-06-04T03:28:30;99910.44;;;7.96;63.15
67842;BME280;54642;59.126;37.876;2023-06-04T03:30:57;99976.78;;;8.34;63.35
67842;BME280;54642;59.126;37.876;2023-06-04T03:33:26;99976.78;;;8.28;63.43
67842;BME280;54642;59.126;37.876;2023-06-04T03:35:52;99956.09;;;8.16;63.33
67842;BME280;54642;59.126;37.876;2023-06-04T03:38:18;99966.41;;;8.22;63.20
67842;BME280;54642;59.126;37.876;2023-06-04T03:40:46;99936.25;;;8.04;63.25
67842;BME280;54642;59.126;37.876;2023-06-04T03:43:13;99966.44;;;8.24;62.87
67842;BME280;54642;59.126;37.876;2023-06-04T03:45:39;99965.56;;;8.23;62.69
67842;BME280;54642;59.126;37.876;2023-06-04T03:48:06;99956.06;;;8.11;62.69
67842;BME280;54642;59.126;37.876;2023-06-04T03:50:34;99943.97;;;7.93;62.54
67842;BME280;54642;59.126;37.876;2023-06-04T03:53:01;99979.28;;;8.10;62.71
67842;BME280;54642;59.126;37.876;2023-06-04T03:55:28;99967.22;;;8.04;62.71
67842;BME280;54642;59.126;37.876;2023-06-04T03:57:58;99980.16;;;8.09;62.71
67842;BME280;54642;59.126;37.876;2023-06-04T04:00:25;99981.88;;;8.11;62.82
67842;BME280;54642;59.126;37.876;2023-06-04T04:02:53;99984.47;;;8.13;62.65
67842;BME280;54642;59.126;37.876;2023-06-04T04:05:24;99974.13;;;8.07;62.82
67842;BME280;54642;59.126;37.876;2023-06-04T04:07:50;99984.47;;;8.19;62.85
67842;BME280;54642;59.126;37.876;2023-06-04T04:10:20;99991.38;;;8.26;62.77
67842;BME280;54642;59.126;37.876;2023-06-04T04:12:46;99984.47;;;8.20;62.55
67842;BME280;54642;59.126;37.876;2023-06-04T04:15:12;99988.78;;;8.17;62.67
67842;BME280;54642;59.126;37.876;2023-06-04T04:17:39;99922.41;;;7.80;62.80
67842;BME280;54642;59.126;37.876;2023-06-04T04:20:05;99952.56;;;7.95;63.08
67842;BME280;54642;59.126;37.876;2023-06-04T04:22:33;99992.25;;;8.25;63.07
67842;BME280;54642;59.126;37.876;2023-06-04T04:25:00;99972.44;;;8.18;63.08
67842;BME280;54642;59.126;37.876;2023-06-04T04:27:27;99982.84;;;8.41;62.90
67842;BME280;54642;59.126;37.876;2023-06-04T04:29:56;99938.03;;;8.22;63.44
67842;BME280;54642;59.126;37.876;2023-06-04T04:32:27;99901.88;;;8.07;62.85
67842;BME280;54642;59.126;37.876;2023-06-04T04:34:56;99948.44;;;8.44;62.64
67842;BME280;54642;59.126;37.876;2023-06-04T04:37:28;99997.56;;;8.76;62.68
67842;BME280;54642;59.126;37.876;2023-06-04T04:39:56;99954.50;;;8.66;62.75
67842;BME280;54642;59.126;37.876;2023-06-04T04:42:24;99923.50;;;8.61;62.51
67842;BME280;54642;59.126;37.876;2023-06-04T04:44:50;99934.72;;;8.78;62.40
67842;BME280;54642;59.126;37.876;2023-06-04T04:47:18;99978.63;;;9.08;62.48
67842;BME280;54642;59.126;37.876;2023-06-04T04:49:44;99976.91;;;9.22;62.21
67842;BME280;54642;59.126;37.876;2023-06-04T04:52:10;99984.66;;;9.39;62.22
67842;BME280;54642;59.126;37.876;2023-06-04T04:54:38;99971.72;;;9.33;62.22
67842;BME280;54642;59.126;37.876;2023-06-04T04:57:04;99973.41;;;9.49;61.93
67842;BME280;54642;59.126;37.876;2023-06-04T04:59:34;99996.66;;;9.74;62.03
67842;BME280;54642;59.126;37.876;2023-06-04T05:02:00;99979.44;;;9.73;62.03
67842;BME280;54642;59.126;37.876;2023-06-04T05:04:26;99985.41;;;9.87;61.88
67842;BME280;54642;59.126;37.876;2023-06-04T05:06:55;99941.47;;;9.67;61.90
67842;BME280;54642;59.126;37.876;2023-06-04T05:09:22;99993.97;;;10.05;61.93
67842;BME280;54642;59.126;37.876;2023-06-04T05:11:48;99975.88;;;10.02;61.72
67842;BME280;54642;59.126;37.876;2023-06-04T05:14:14;99975.84;;;10.09;61.68
67842;BME280;54642;59.126;37.876;2023-06-04T05:16:42;99980.97;;;10.23;61.68
67842;BME280;54642;59.126;37.876;2023-06-04T05:19:12;99939.59;;;10.05;61.31
67842;BME280;54642;59.126;37.876;2023-06-04T05:21:39;99945.50;;;10.30;61.07
67842;BME280;54642;59.126;37.876;2023-06-04T05:24:06;99964.38;;;10.58;61.36
67842;BME280;54642;59.126;37.876;2023-06-04T05:26:36;99987.59;;;10.77;60.76
67842;BME280;54642;59.126;37.876;2023-06-04T05:29:09;99980.53;;;10.96;60.29
67842;BME280;54642;59.126;37.876;2023-06-04T05:31:39;99963.28;;;10.92;59.91
67842;BME280;54642;59.126;37.876;2023-06-04T05:34:07;99991.66;;;11.09;60.01
67842;BME280;54642;59.126;37.876;2023-06-04T05:36:37;99983.03;;;11.06;59.72
67842;BME280;54642;59.126;37.876;2023-06-04T05:39:06;99978.75;;;11.02;59.66
67842;BME280;54642;59.126;37.876;2023-06-04T05:41:44;99957.25;;;10.91;59.73
67842;BME280;54642;59.126;37.876;2023-06-04T05:44:11;99963.22;;;10.98;59.77
67842;BME280;54642;59.126;37.876;2023-06-04T05:46:37;99976.03;;;11.18;59.74
67842;BME280;54642;59.126;37.876;2023-06-04T05:49:03;99965.56;;;11.29;59.36
67842;BME280;54642;59.126;37.876;2023-06-04T05:51:29;99964.56;;;11.42;59.33
67842;BME280;54642;59.126;37.876;2023-06-04T05:53:56;99960.09;;;11.56;59.14
67842;BME280;54642;59.126;37.876;2023-06-04T05:56:21;99962.69;;;11.55;58.79
67842;BME280;54642;59.126;37.876;2023-06-04T05:58:52;99919.00;;;11.13;58.74
67842;BME280;54642;59.126;37.876;2023-06-04T06:01:19;99941.41;;;11.22;58.86
67842;BME280;54642;59.126;37.876;2023-06-04T06:03:45;99961.06;;;11.44;58.64
67842;BME280;54642;59.126;37.876;2023-06-04T06:06:12;99959.34;;;11.45;58.28
67842;BME280;54642;59.126;37.876;2023-06-04T06:08:38;99943.00;;;11.34;58.12
67842;BME280;54642;59.126;37.876;2023-06-04T06:11:04;99964.56;;;11.40;58.01
67842;BME280;54642;59.126;37.876;2023-06-04T06:13:31;99944.66;;;11.41;58.02
67842;BME280;54642;59.126;37.876;2023-06-04T06:15:57;99978.88;;;11.78;57.77
67842;BME280;54642;59.126;37.876;2023-06-04T06:18:24;99976.31;;;11.77;57.71
67842;BME280;54642;59.126;37.876;2023-06-04T06:20:50;99975.41;;;11.79;57.57
67842;BME280;54642;59.126;37.876;2023-06-04T06:23:16;99984.84;;;11.91;57.31
67842;BME280;54642;59.126;37.876;2023-06-04T06:25:45;99922.88;;;11.59;57.66
67842;BME280;54642;59.126;37.876;2023-06-04T06:28:19;99962.34;;;11.86;57.36
67842;BME280;54642;59.126;37.876;2023-06-04T06:30:46;99970.13;;;11.86;57.39
67842;BME280;54642;59.126;37.876;2023-06-04T06:33:13;99966.78;;;11.79;57.01
67842;BME280;54642;59.126;37.876;2023-06-04T06:35:39;99944.38;;;11.69;57.04
67842;BME280;54642;59.126;37.876;2023-06-04T06:38:05;99956.28;;;11.91;56.54
67842;BME280;54642;59.126;37.876;2023-06-04T06:40:31;99919.09;;;11.85;56.44
67842;BME280;54642;59.126;37.876;2023-06-04T06:42:57;99933.38;;;12.21;55.99
67842;BME280;54642;59.126;37.876;2023-06-04T06:45:23;99923.75;;;12.29;55.26
67842;BME280;54642;59.126;37.876;2023-06-04T06:47:49;99899.69;;;12.16;54.96
67842;BME280;54642;59.126;37.876;2023-06-04T06:50:15;99810.06;;;11.85;54.61
67842;BME280;54642;59.126;37.876;2023-06-04T06:52:41;99949.91;;;12.76;54.54
67842;BME280;54642;59.126;37.876;2023-06-04T06:55:07;99916.88;;;12.83;54.35
67842;BME280;54642;59.126;37.876;2023-06-04T06:57:33;99947.91;;;12.92;53.49
67842;BME280;54642;59.126;37.876;2023-06-04T06:59:59;99938.66;;;12.74;53.61
67842;BME280;54642;59.126;37.876;2023-06-04T07:02:25;99946.66;;;12.62;53.57
67842;BME280;54642;59.126;37.876;2023-06-04T07:04:51;99917.78;;;12.21;54.00
67842;BME280;54642;59.126;37.876;2023-06-04T07:07:17;99831.91;;;11.68;53.91
67842;BME280;54642;59.126;37.876;2023-06-04T07:09:43;99949.53;;;12.43;53.97
67842;BME280;54642;59.126;37.876;2023-06-04T07:12:09;99951.38;;;12.35;54.01
67842;BME280;54642;59.126;37.876;2023-06-04T07:14:35;99903.44;;;11.94;54.21
67842;BME280;54642;59.126;37.876;2023-06-04T07:17:01;99943.97;;;12.06;54.71
67842;BME280;54642;59.126;37.876;2023-06-04T07:19:26;99949.34;;;11.89;54.42
67842;BME280;54642;59.126;37.876;2023-06-04T07:21:54;99957.97;;;11.89;54.86
67842;BME280;54642;59.126;37.876;2023-06-04T07:24:21;99940.00;;;11.72;55.11
67842;BME280;54642;59.126;37.876;2023-06-04T07:26:47;99899.44;;;11.63;54.88
67842;BME280;54642;59.126;37.876;2023-06-04T07:29:13;99938.84;;;11.99;54.47
67842;BME280;54642;59.126;37.876;2023-06-04T07:31:41;99946.44;;;12.16;54.04
67842;BME280;54642;59.126;37.876;2023-06-04T07:34:06;99936.09;;;12.10;54.09
67842;BME280;54642;59.126;37.876;2023-06-04T07:36:32;99912.66;;;12.16;53.93
67842;BME280;54642;59.126;37.876;2023-06-04T07:38:59;99953.91;;;12.39;53.71
67842;BME280;54642;59.126;37.876;2023-06-04T07:41:28;99932.88;;;12.56;53.70
67842;BME280;54642;59.126;37.876;2023-06-04T07:43:54;99942.75;;;12.89;52.65
67842;BME280;54642;59.126;37.876;2023-06-04T07:46:20;99948.44;;;13.12;52.03
67842;BME280;54642;59.126;37.876;2023-06-04T07:48:46;99892.09;;;13.11;51.41
67842;BME280;54642;59.126;37.876;2023-06-04T07:51:13;99895.94;;;13.40;50.98
67842;BME280;54642;59.126;37.876;2023-06-04T07:53:39;99933.81;;;13.55;50.70
67842;BME280;54642;59.126;37.876;2023-06-04T07:56:06;99924.03;;;13.66;50.46
67842;BME280;54642;59.126;37.876;2023-06-04T07:58:32;99877.66;;;13.43;50.07
67842;BME280;54642;59.126;37.876;2023-06-04T08:00:58;99918.66;;;13.77;50.16
67842;BME280;54642;59.126;37.876;2023-06-04T08:03:24;99919.16;;;13.93;49.91
67842;BME280;54642;59.126;37.876;2023-06-04T08:05:50;99909.47;;;14.00;49.73
67842;BME280;54642;59.126;37.876;2023-06-04T08:08:16;99853.66;;;13.71;49.65
67842;BME280;54642;59.126;37.876;2023-06-04T08:10:42;99921.16;;;14.22;49.15
67842;BME280;54642;59.126;37.876;2023-06-04T08:13:08;99916.88;;;14.18;49.04
67842;BME280;54642;59.126;37.876;2023-06-04T08:15:35;99928.38;;;14.09;49.50
67842;BME280;54642;59.126;37.876;2023-06-04T08:18:21;99917.56;;;13.86;49.83
67842;BME280;54642;59.126;37.876;2023-06-04T08:21:10;99877.31;;;13.60;49.93
67842;BME280;54642;59.126;37.876;2023-06-04T08:23:55;99924.63;;;14.23;49.82
67842;BME280;54642;59.126;37.876;2023-06-04T08:26:42;99934.97;;;14.26;49.70
67842;BME280;54642;59.126;37.876;2023-06-04T08:29:24;99922.50;;;14.00;49.40
67842;BME280;54642;59.126;37.876;2023-06-04T08:31:54;99932.25;;;13.91;48.95
67842;BME280;54642;59.126;37.876;2023-06-04T08:34:25;99947.13;;;13.85;49.68
67842;BME280;54642;59.126;37.876;2023-06-04T08:36:50;99931.31;;;13.94;49.69
67842;BME280;54642;59.126;37.876;2023-06-04T08:39:17;99937.66;;;14.23;49.32
67842;BME280;54642;59.126;37.876;2023-06-04T08:41:45;99927.16;;;14.26;49.13
67842;BME280;54642;59.126;37.876;2023-06-04T08:44:11;99938.50;;;14.23;49.08
67842;BME280;54642;59.126;37.876;2023-06-04T08:46:38;99933.19;;;13.86;48.93
67842;BME280;54642;59.126;37.876;2023-06-04T08:49:08;99930.09;;;13.68;49.36
67842;BME280;54642;59.126;37.876;2023-06-04T08:51:36;99944.19;;;13.58;49.27
67842;BME280;54642;59.126;37.876;2023-06-04T08:54:06;99925.41;;;13.41;49.12
67842;BME280;54642;59.126;37.876;2023-06-04T08:56:36;99939.06;;;13.52;49.02
67842;BME280;54642;59.126;37.876;2023-06-04T08:59:05;99908.97;;;13.39;49.16
67842;BME280;54642;59.126;37.876;2023-06-04T09:01:35;99917.38;;;13.53;49.35
67842;BME280;54642;59.126;37.876;2023-06-04T09:04:06;99906.16;;;13.49;48.43
67842;BME280;54642;59.126;37.876;2023-06-04T09:06:33;99876.97;;;13.30;48.08
67842;BME280;54642;59.126;37.876;2023-06-04T09:09:02;99912.88;;;13.61;47.60
67842;BME280;54642;59.126;37.876;2023-06-04T09:11:38;99909.28;;;13.68;47.34
67842;BME280;54642;59.126;37.876;2023-06-04T09:14:07;99917.06;;;13.70;47.24
67842;BME280;54642;59.126;37.876;2023-06-04T09:16:48;99918.78;;;13.69;47.08
67842;BME280;54642;59.126;37.876;2023-06-04T09:19:15;99928.28;;;13.72;47.34
67842;BME280;54642;59.126;37.876;2023-06-04T09:21:55;99921.44;;;13.66;47.31
67842;BME280;54642;59.126;37.876;2023-06-04T09:24:24;99942.41;;;13.60;47.23
67842;BME280;54642;59.126;37.876;2023-06-04T09:26:51;99947.78;;;13.51;47.19
67842;BME280;54642;59.126;37.876;2023-06-04T09:29:17;99893.88;;;13.09;47.51
67842;BME280;54642;59.126;37.876;2023-06-04T09:31:56;99929.19;;;13.23;48.15
67842;BME280;54642;59.126;37.876;2023-06-04T09:34:29;99940.66;;;13.11;48.84
67842;BME280;54642;59.126;37.876;2023-06-04T09:36:55;99948.56;;;13.05;49.34
67842;BME280;54642;59.126;37.876;2023-06-04T09:39:22;99955.84;;;12.84;50.58
67842;BME280;54642;59.126;37.876;2023-06-04T09:41:59;99990.69;;;12.72;52.36
67842;BME280;54642;59.126;37.876;2023-06-04T09:44:26;100005.84;;;12.41;54.11
67842;BME280;54642;59.126;37.876;2023-06-04T09:46:58;100027.03;;;12.07;56.16
67842;BME280;54642;59.126;37.876;2023-06-04T09:49:24;100029.94;;;11.78;57.10
67842;BME280;54642;59.126;37.876;2023-06-04T09:51:50;100023.16;;;11.64;57.80
67842;BME280;54642;59.126;37.876;2023-06-04T09:54:16;100026.72;;;11.53;58.02
67842;BME280;54642;59.126;37.876;2023-06-04T09:56:42;100030.16;;;11.55;58.37
67842;BME280;54642;59.126;37.876;2023-06-04T09:59:09;99973.47;;;11.15;59.08
67842;BME280;54642;59.126;37.876;2023-06-04T10:01:39;100025.78;;;11.60;59.14
67842;BME280;54642;59.126;37.876;2023-06-04T10:04:08;100011.94;;;11.62;59.38
67842;BME280;54642;59.126;37.876;2023-06-04T10:06:35;100012.69;;;11.72;59.29
67842;BME280;54642;59.126;37.876;2023-06-04T10:09:05;100003.16;;;11.74;59.03
67842;BME280;54642;59.126;37.876;2023-06-04T10:11:47;100026.28;;;11.99;58.69
67842;BME280;54642;59.126;37.876;2023-06-04T10:14:29;99996.91;;;11.95;58.38
67842;BME280;54642;59.126;37.876;2023-06-04T10:16:58;100027.84;;;12.12;57.79
67842;BME280;54642;59.126;37.876;2023-06-04T10:19:24;99981.38;;;11.88;57.88
67842;BME280;54642;59.126;37.876;2023-06-04T10:21:52;100025.38;;;12.05;57.88
67842;BME280;54642;59.126;37.876;2023-06-04T10:24:18;100016.84;;;11.89;58.17
67842;BME280;54642;59.126;37.876;2023-06-04T10:26:47;100026.28;;;12.02;58.28
67842;BME280;54642;59.126;37.876;2023-06-04T10:29:14;99963.47;;;11.66;58.60
67842;BME280;54642;59.126;37.876;2023-06-04T10:31:40;100018.53;;;11.94;58.23
67842;BME280;54642;59.126;37.876;2023-06-04T10:34:07;99988.41;;;11.76;57.98
67842;BME280;54642;59.126;37.876;2023-06-04T10:36:42;100018.59;;;11.87;56.71
67842;BME280;54642;59.126;37.876;2023-06-04T10:39:08;99975.59;;;11.62;56.78
67842;BME280;54642;59.126;37.876;2023-06-04T10:41:34;100014.25;;;11.92;56.21
67842;BME280;54642;59.126;37.876;2023-06-04T10:44:01;99989.13;;;11.94;56.14
67842;BME280;54642;59.126;37.876;2023-06-04T10:46:37;100007.00;;;12.22;55.59
67842;BME280;54642;59.126;37.876;2023-06-04T10:49:04;99997.28;;;12.36;55.72
67842;BME280;54642;59.126;37.876;2023-06-04T10:51:34;99967.06;;;12.29;55.32
67842;BME280;54642;59.126;37.876;2023-06-04T10:54:02;100005.50;;;12.66;55.20
67842;BME280;54642;59.126;37.876;2023-06-04T10:56:33;99955.63;;;12.39;54.66
67842;BME280;54642;59.126;37.876;2023-06-04T10:59:01;99968.44;;;12.54;54.84
67842;BME280;54642;59.126;37.876;2023-06-04T11:01:38;100003.66;;;12.75;54.51
67842;BME280;54642;59.126;37.876;2023-06-04T11:04:05;99993.31;;;12.69;53.75
67842;BME280;54642;59.126;37.876;2023-06-04T11:06:31;99998.63;;;12.63;53.52
67842;BME280;54642;59.126;37.876;2023-06-04T11:09:05;100003.84;;;12.62;53.89
67842;BME280;54642;59.126;37.876;2023-06-04T11:11:32;99999.50;;;12.61;54.00
67842;BME280;54642;59.126;37.876;2023-06-04T11:14:08;99979.69;;;12.53;54.04
67842;BME280;54642;59.126;37.876;2023-06-04T11:16:34;99920.34;;;12.23;54.38
67842;BME280;54642;59.126;37.876;2023-06-04T11:19:00;99934.94;;;12.33;54.27
67842;BME280;54642;59.126;37.876;2023-06-04T11:21:27;99999.47;;;12.65;54.62
67842;BME280;54642;59.126;37.876;2023-06-04T11:24:00;99941.06;;;12.29;54.73
67842;BME280;54642;59.126;37.876;2023-06-04T11:26:34;100003.88;;;12.60;55.54
67842;BME280;54642;59.126;37.876;2023-06-04T11:29:01;100000.34;;;12.64;55.09
67842;BME280;54642;59.126;37.876;2023-06-04T11:31:28;100009.06;;;12.60;55.12
67842;BME280;54642;59.126;37.876;2023-06-04T11:33:54;99991.84;;;12.53;55.22
67842;BME280;54642;59.126;37.876;2023-06-04T11:36:23;100015.09;;;12.64;55.41
67842;BME280;54642;59.126;37.876;2023-06-04T11:39:02;99997.84;;;12.56;55.60
67842;BME280;54642;59.126;37.876;2023-06-04T11:41:30;99985.97;;;12.38;55.68
67842;BME280;54642;59.126;37.876;2023-06-04T11:44:06;100016.19;;;12.46;55.98
67842;BME280;54642;59.126;37.876;2023-06-04T11:46:32;100024.03;;;12.41;56.40
67842;BME280;54642;59.126;37.876;2023-06-04T11:48:59;100009.38;;;12.35;56.17
67842;BME280;54642;59.126;37.876;2023-06-04T11:51:26;100005.22;;;12.25;56.22
67842;BME280;54642;59.126;37.876;2023-06-04T11:53:52;100022.41;;;12.34;56.57
67842;BME280;54642;59.126;37.876;2023-06-04T11:56:20;99942.41;;;11.89;56.53
67842;BME280;54642;59.126;37.876;2023-06-04T11:58:46;99998.41;;;12.13;56.23
67842;BME280;54642;59.126;37.876;2023-06-04T12:01:12;99944.22;;;11.84;55.98
67842;BME280;54642;59.126;37.876;2023-06-04T12:03:40;100019.97;;;12.22;56.25
67842;BME280;54642;59.126;37.876;2023-06-04T12:06:10;100028.59;;;12.25;56.56
67842;BME280;54642;59.126;37.876;2023-06-04T12:08:53;99977.88;;;11.95;56.52
67842;BME280;54642;59.126;37.876;2023-06-04T12:11:39;100030.31;;;12.25;56.68
67842;BME280;54642;59.126;37.876;2023-06-04T12:14:07;100010.56;;;12.11;56.65
67842;BME280;54642;59.126;37.876;2023-06-04T12:16:36;99974.44;;;11.90;56.62
67842;BME280;54642;59.126;37.876;2023-06-04T12:19:09;99990.75;;;12.02;56.62
67842;BME280;54642;59.126;37.876;2023-06-04T12:21:36;100027.69;;;12.28;56.66
67842;BME280;54642;59.126;37.876;2023-06-04T12:24:06;100038.06;;;12.31;56.65
67842;BME280;54642;59.126;37.876;2023-06-04T12:26:33;99968.34;;;11.94;56.52
67842;BME280;54642;59.126;37.876;2023-06-04T12:29:12;100033.75;;;12.27;56.47
67842;BME280;54642;59.126;37.876;2023-06-04T12:31:47;99986.41;;;12.05;56.71
67842;BME280;54642;59.126;37.876;2023-06-04T12:34:14;100018.25;;;12.20;56.55
67842;BME280;54642;59.126;37.876;2023-06-04T12:36:40;100026.84;;;12.27;56.84
67842;BME280;54642;59.126;37.876;2023-06-04T12:39:06;99969.25;;;11.90;56.89
67842;BME280;54642;59.126;37.876;2023-06-04T12:41:36;100020.84;;;12.20;56.87
67842;BME280;54642;59.126;37.876;2023-06-04T12:44:02;100001.88;;;12.12;56.78
67842;BME280;54642;59.126;37.876;2023-06-04T12:46:28;100036.28;;;12.33;56.79
67842;BME280;54642;59.126;37.876;2023-06-04T12:48:54;99997.63;;;12.07;56.82
67842;BME280;54642;59.126;37.876;2023-06-04T12:51:20;99978.72;;;11.97;56.87
67842;BME280;54642;59.126;37.876;2023-06-04T12:53:49;99976.16;;;11.92;57.18
67842;BME280;54642;59.126;37.876;2023-06-04T12:56:16;100035.34;;;12.40;57.27
67842;BME280;54642;59.126;37.876;2023-06-04T12:58:42;99996.53;;;12.25;57.39
67842;BME280;54642;59.126;37.876;2023-06-04T13:01:08;100020.44;;;12.51;57.19
67842;BME280;54642;59.126;37.876;2023-06-04T13:03:36;100028.09;;;12.62;56.63
67842;BME280;54642;59.126;37.876;2023-06-04T13:06:02;100004.72;;;12.59;56.14